ASA321 KLAX-PANC
Flight info
| Callsign | ASA321 |
|---|---|
| Flight time | 5h 12m |
| Altitude | 34000 |
| Route | LADYJ4 CSTRO NURAY LMT VIDAS CYVIC OMSEB HAAZY LAIRE JOH PTERS3 |
| Aircraft | B738/M-SDGIRW/LB1 |
Departure
| Time | 2026-05-07 01:13 |
|---|---|
| Airport | Los Angeles International Airport (KLAX) |
Arrival
| Time | 2026-05-07 06:25 |
|---|---|
| Airport | Ted Stevens Anchorage International Airport (PANC) |
| Time | Latitude | Longitude | Altitude | Speed | Heading |
|---|---|---|---|---|---|
| 2026-05-07 00:33 | 33.94053 | -118.40136 | 96 ft | 0 kts | 264° |
| 2026-05-07 01:04 | 33.94053 | -118.40135 | 92 ft | 1 kts | 264° |
| 2026-05-07 01:04 | 33.94055 | -118.40110 | 92 ft | 4 kts | 254° |
| 2026-05-07 01:05 | 33.94067 | -118.40084 | 92 ft | 4 kts | 215° |
| 2026-05-07 01:05 | 33.94088 | -118.40075 | 90 ft | 2 kts | 173° |
| 2026-05-07 01:05 | 33.94093 | -118.40075 | 90 ft | 0 kts | 173° |
| 2026-05-07 01:07 | 33.94087 | -118.40074 | 92 ft | 1 kts | 174° |
| 2026-05-07 01:07 | 33.94066 | -118.40072 | 91 ft | 7 kts | 173° |
| 2026-05-07 01:08 | 33.94010 | -118.40063 | 92 ft | 10 kts | 173° |
| 2026-05-07 01:08 | 33.93939 | -118.40053 | 95 ft | 10 kts | 173° |
| 2026-05-07 01:08 | 33.93885 | -118.40000 | 98 ft | 13 kts | 109° |
| 2026-05-07 01:08 | 33.93892 | -118.39862 | 95 ft | 18 kts | 83° |
| 2026-05-07 01:09 | 33.93910 | -118.39691 | 94 ft | 22 kts | 83° |
| 2026-05-07 01:09 | 33.93929 | -118.39507 | 94 ft | 22 kts | 83° |
| 2026-05-07 01:09 | 33.93947 | -118.39328 | 92 ft | 21 kts | 83° |
| 2026-05-07 01:09 | 33.93965 | -118.39154 | 95 ft | 21 kts | 83° |
| 2026-05-07 01:10 | 33.93982 | -118.38986 | 93 ft | 20 kts | 83° |
| 2026-05-07 01:10 | 33.94000 | -118.38815 | 95 ft | 20 kts | 83° |
| 2026-05-07 01:10 | 33.94017 | -118.38643 | 94 ft | 22 kts | 83° |
| 2026-05-07 01:10 | 33.94036 | -118.38461 | 95 ft | 22 kts | 83° |
| 2026-05-07 01:11 | 33.94054 | -118.38284 | 96 ft | 21 kts | 83° |
| 2026-05-07 01:11 | 33.94070 | -118.38118 | 94 ft | 18 kts | 84° |
| 2026-05-07 01:11 | 33.94075 | -118.38034 | 92 ft | 0 kts | 102° |
| 2026-05-07 01:11 | 33.94040 | -118.38002 | 92 ft | 14 kts | 165° |
| 2026-05-07 01:12 | 33.93981 | -118.38046 | 94 ft | 11 kts | 264° |
| 2026-05-07 01:12 | 33.93965 | -118.38204 | 98 ft | 44 kts | 263° |
| 2026-05-07 01:12 | 33.93893 | -118.38901 | 95 ft | 121 kts | 263° |
| 2026-05-07 01:12 | 33.93765 | -118.40135 | 230 ft | 172 kts | 263° |
| 2026-05-07 01:13 | 33.93618 | -118.41636 | 946 ft | 189 kts | 263° |
| 2026-05-07 01:13 | 33.93458 | -118.43241 | 1735 ft | 191 kts | 264° |
| 2026-05-07 01:13 | 33.93296 | -118.44886 | 2191 ft | 211 kts | 264° |
| 2026-05-07 01:13 | 33.93237 | -118.45488 | 2283 ft | 218 kts | 264° |
| 2026-05-07 01:14 | 33.92815 | -118.50302 | 3517 ft | 245 kts | 265° |
| 2026-05-07 01:14 | 33.92644 | -118.52364 | 4225 ft | 247 kts | 265° |
| 2026-05-07 01:14 | 33.92473 | -118.54428 | 4932 ft | 249 kts | 267° |
| 2026-05-07 01:15 | 33.92301 | -118.56510 | 5569 ft | 252 kts | 267° |
| 2026-05-07 01:15 | 33.92125 | -118.58650 | 6040 ft | 267 kts | 267° |
| 2026-05-07 01:15 | 33.92049 | -118.60956 | 6524 ft | 279 kts | 282° |
| 2026-05-07 01:15 | 33.92797 | -118.63069 | 7209 ft | 275 kts | 313° |
| 2026-05-07 01:16 | 33.94241 | -118.64530 | 7713 ft | 276 kts | 332° |
| 2026-05-07 01:16 | 33.95932 | -118.65633 | 7970 ft | 277 kts | 335° |
| 2026-05-07 01:16 | 33.97631 | -118.66714 | 7992 ft | 276 kts | 335° |
| 2026-05-07 01:16 | 33.99397 | -118.67594 | 7983 ft | 273 kts | 353° |
| 2026-05-07 01:17 | 34.01281 | -118.67664 | 8008 ft | 271 kts | 5° |
| 2026-05-07 01:17 | 34.03169 | -118.67524 | 8006 ft | 272 kts | 5° |
| 2026-05-07 01:17 | 34.05067 | -118.67384 | 8002 ft | 273 kts | 5° |
| 2026-05-07 01:17 | 34.06962 | -118.67253 | 7984 ft | 273 kts | 5° |
| 2026-05-07 01:18 | 34.08854 | -118.67028 | 8032 ft | 274 kts | 11° |
| 2026-05-07 01:18 | 34.10729 | -118.66580 | 8740 ft | 274 kts | 13° |
| 2026-05-07 01:18 | 34.12555 | -118.66113 | 9705 ft | 271 kts | 14° |
| 2026-05-07 01:18 | 34.14417 | -118.65641 | 10384 ft | 279 kts | 14° |
| 2026-05-07 01:19 | 34.16400 | -118.65150 | 10580 ft | 303 kts | 13° |
| 2026-05-07 01:19 | 34.18548 | -118.64631 | 10773 ft | 326 kts | 13° |
| 2026-05-07 01:19 | 34.20845 | -118.64085 | 10930 ft | 347 kts | 13° |
| 2026-05-07 01:19 | 34.23260 | -118.63519 | 11306 ft | 359 kts | 11° |
| 2026-05-07 01:20 | 34.25781 | -118.63443 | 11838 ft | 369 kts | 353° |
| 2026-05-07 01:20 | 34.28314 | -118.64057 | 12536 ft | 372 kts | 351° |
| 2026-05-07 01:20 | 34.30869 | -118.64687 | 13155 ft | 376 kts | 351° |
| 2026-05-07 01:20 | 34.33422 | -118.65295 | 13729 ft | 381 kts | 351° |
| 2026-05-07 01:21 | 34.36038 | -118.65902 | 14305 ft | 383 kts | 352° |
| 2026-05-07 01:21 | 34.38632 | -118.66495 | 14868 ft | 387 kts | 352° |
| 2026-05-07 01:21 | 34.41288 | -118.67101 | 15402 ft | 390 kts | 352° |
| 2026-05-07 01:21 | 34.43970 | -118.67698 | 15945 ft | 393 kts | 352° |
| 2026-05-07 01:22 | 34.46680 | -118.68241 | 16499 ft | 396 kts | 353° |
| 2026-05-07 01:22 | 34.49403 | -118.68760 | 17069 ft | 397 kts | 353° |
| 2026-05-07 01:22 | 34.52147 | -118.69280 | 17607 ft | 400 kts | 353° |
| 2026-05-07 01:22 | 34.54906 | -118.69808 | 18115 ft | 403 kts | 353° |
| 2026-05-07 01:23 | 34.57692 | -118.70347 | 18595 ft | 406 kts | 353° |
| 2026-05-07 01:23 | 34.60490 | -118.70892 | 19044 ft | 409 kts | 353° |
| 2026-05-07 01:23 | 34.63303 | -118.71443 | 19504 ft | 411 kts | 353° |
| 2026-05-07 01:23 | 34.66131 | -118.71997 | 19939 ft | 413 kts | 353° |
| 2026-05-07 01:24 | 34.68980 | -118.72555 | 20378 ft | 416 kts | 353° |
| 2026-05-07 01:24 | 34.71837 | -118.73208 | 20817 ft | 420 kts | 346° |
| 2026-05-07 01:24 | 34.74512 | -118.74699 | 21242 ft | 427 kts | 332° |
| 2026-05-07 01:24 | 34.77076 | -118.76544 | 21716 ft | 428 kts | 333° |
| 2026-05-07 01:25 | 34.79632 | -118.78352 | 22114 ft | 431 kts | 333° |
| 2026-05-07 01:25 | 34.82247 | -118.80177 | 22498 ft | 434 kts | 333° |
| 2026-05-07 01:25 | 34.84877 | -118.81997 | 22893 ft | 436 kts | 333° |
| 2026-05-07 01:25 | 34.87525 | -118.83822 | 23309 ft | 438 kts | 334° |
| 2026-05-07 01:26 | 34.90184 | -118.85651 | 23690 ft | 440 kts | 334° |
| 2026-05-07 01:26 | 34.92855 | -118.87488 | 24006 ft | 442 kts | 334° |
| 2026-05-07 01:26 | 34.95542 | -118.89338 | 24318 ft | 444 kts | 334° |
| 2026-05-07 01:26 | 34.98240 | -118.91197 | 24643 ft | 446 kts | 334° |
| 2026-05-07 01:27 | 35.00950 | -118.93066 | 24957 ft | 448 kts | 333° |
| 2026-05-07 01:27 | 35.03669 | -118.94943 | 25274 ft | 450 kts | 333° |
| 2026-05-07 01:27 | 35.06403 | -118.96833 | 25564 ft | 452 kts | 333° |
| 2026-05-07 01:27 | 35.09140 | -118.98726 | 25846 ft | 454 kts | 333° |
| 2026-05-07 01:28 | 35.11891 | -119.00630 | 26128 ft | 455 kts | 333° |
| 2026-05-07 01:28 | 35.14623 | -119.02523 | 26411 ft | 457 kts | 333° |
| 2026-05-07 01:28 | 35.17391 | -119.04442 | 26681 ft | 459 kts | 333° |
| 2026-05-07 01:28 | 35.20176 | -119.06374 | 26950 ft | 460 kts | 333° |
| 2026-05-07 01:29 | 35.22966 | -119.08312 | 27237 ft | 461 kts | 333° |
| 2026-05-07 01:29 | 35.25756 | -119.10251 | 27597 ft | 460 kts | 333° |
| 2026-05-07 01:29 | 35.28533 | -119.12184 | 28030 ft | 458 kts | 333° |
| 2026-05-07 01:29 | 35.31298 | -119.14109 | 28466 ft | 456 kts | 333° |
| 2026-05-07 01:30 | 35.34052 | -119.16027 | 28865 ft | 455 kts | 333° |
| 2026-05-07 01:30 | 35.36801 | -119.17944 | 29246 ft | 454 kts | 333° |
| 2026-05-07 01:30 | 35.39545 | -119.19858 | 29652 ft | 453 kts | 333° |
| 2026-05-07 01:30 | 35.42272 | -119.21762 | 30147 ft | 449 kts | 333° |
| 2026-05-07 01:31 | 35.44985 | -119.23660 | 30540 ft | 447 kts | 332° |
| 2026-05-07 01:31 | 35.47350 | -119.26158 | 30733 ft | 458 kts | 309° |
| 2026-05-07 01:31 | 35.48871 | -119.29610 | 31031 ft | 467 kts | 291° |
| 2026-05-07 01:31 | 35.49390 | -119.33505 | 31327 ft | 475 kts | 272° |
| 2026-05-07 01:32 | 35.48886 | -119.37530 | 31626 ft | 480 kts | 261° |
| 2026-05-07 01:32 | 35.48465 | -119.41569 | 31880 ft | 474 kts | 276° |
| 2026-05-07 01:32 | 35.49053 | -119.45495 | 32095 ft | 465 kts | 294° |
| 2026-05-07 01:32 | 35.50511 | -119.48982 | 32423 ft | 456 kts | 309° |
| 2026-05-07 01:33 | 35.52591 | -119.51864 | 32743 ft | 448 kts | 322° |
| 2026-05-07 01:33 | 35.55123 | -119.54047 | 33039 ft | 442 kts | 334° |
| 2026-05-07 01:33 | 35.57946 | -119.55492 | 33254 ft | 439 kts | 348° |
| 2026-05-07 01:33 | 35.60949 | -119.56133 | 33483 ft | 438 kts | 354° |
| 2026-05-07 01:34 | 35.63973 | -119.56556 | 33785 ft | 437 kts | 355° |
| 2026-05-07 01:34 | 35.66994 | -119.56931 | 34071 ft | 436 kts | 356° |
| 2026-05-07 01:34 | 35.70032 | -119.57303 | 34058 ft | 441 kts | 355° |
| 2026-05-07 01:35 | 35.76141 | -119.58099 | 34062 ft | 440 kts | 355° |
| 2026-05-07 01:35 | 35.82179 | -119.58942 | 34066 ft | 434 kts | 355° |
| 2026-05-07 01:36 | 35.88136 | -119.59793 | 34078 ft | 433 kts | 355° |
| 2026-05-07 01:36 | 35.94128 | -119.60651 | 34074 ft | 433 kts | 355° |
| 2026-05-07 01:37 | 36.00126 | -119.61511 | 34082 ft | 433 kts | 354° |
| 2026-05-07 01:37 | 36.06125 | -119.62372 | 34087 ft | 434 kts | 354° |
| 2026-05-07 01:38 | 36.12133 | -119.63234 | 34091 ft | 435 kts | 354° |
| 2026-05-07 01:38 | 36.18154 | -119.64100 | 34093 ft | 436 kts | 354° |
| 2026-05-07 01:39 | 36.24183 | -119.64969 | 34090 ft | 437 kts | 354° |
| 2026-05-07 01:39 | 36.30226 | -119.65841 | 34092 ft | 437 kts | 354° |
| 2026-05-07 01:40 | 36.36245 | -119.66711 | 34095 ft | 438 kts | 354° |
| 2026-05-07 01:40 | 36.42306 | -119.67588 | 34095 ft | 438 kts | 354° |
| 2026-05-07 01:41 | 36.48366 | -119.68467 | 34091 ft | 438 kts | 354° |
| 2026-05-07 01:41 | 36.54427 | -119.69347 | 34086 ft | 438 kts | 354° |
| 2026-05-07 01:42 | 36.60476 | -119.70314 | 34094 ft | 438 kts | 349° |
| 2026-05-07 01:42 | 36.66383 | -119.72208 | 34094 ft | 438 kts | 345° |
| 2026-05-07 01:43 | 36.72210 | -119.74265 | 34095 ft | 437 kts | 345° |
| 2026-05-07 01:43 | 36.78070 | -119.76306 | 34089 ft | 437 kts | 346° |
| 2026-05-07 01:44 | 36.83933 | -119.78309 | 34090 ft | 436 kts | 346° |
| 2026-05-07 01:44 | 36.89793 | -119.80296 | 34089 ft | 436 kts | 346° |
| 2026-05-07 01:45 | 36.94660 | -119.81946 | 34077 ft | 436 kts | 346° |
| 2026-05-07 01:45 | 37.00512 | -119.83933 | 34086 ft | 435 kts | 346° |
| 2026-05-07 01:46 | 37.06362 | -119.85924 | 34090 ft | 435 kts | 346° |
| 2026-05-07 01:46 | 37.12207 | -119.87916 | 34090 ft | 436 kts | 346° |
| 2026-05-07 01:47 | 37.18062 | -119.89915 | 34091 ft | 436 kts | 346° |
| 2026-05-07 01:47 | 37.23923 | -119.91919 | 34084 ft | 437 kts | 346° |
| 2026-05-07 01:48 | 37.29792 | -119.93929 | 34094 ft | 437 kts | 346° |
| 2026-05-07 01:48 | 37.35666 | -119.95945 | 34095 ft | 438 kts | 345° |
| 2026-05-07 01:49 | 37.41550 | -119.97967 | 34090 ft | 438 kts | 345° |
| 2026-05-07 01:49 | 37.47432 | -119.99992 | 34087 ft | 438 kts | 345° |
| 2026-05-07 01:50 | 37.53279 | -120.02007 | 34091 ft | 438 kts | 345° |
| 2026-05-07 01:50 | 37.59164 | -120.04040 | 34094 ft | 438 kts | 345° |
| 2026-05-07 01:51 | 37.65049 | -120.06075 | 34085 ft | 438 kts | 345° |
| 2026-05-07 01:51 | 37.70931 | -120.08113 | 34085 ft | 438 kts | 345° |
| 2026-05-07 01:52 | 37.76769 | -120.10139 | 34080 ft | 437 kts | 345° |
| 2026-05-07 01:52 | 37.82645 | -120.12182 | 34078 ft | 437 kts | 345° |
| 2026-05-07 01:53 | 37.88515 | -120.14226 | 34093 ft | 437 kts | 345° |
| 2026-05-07 01:53 | 37.94388 | -120.16274 | 34097 ft | 437 kts | 345° |
| 2026-05-07 01:54 | 38.00261 | -120.18325 | 34089 ft | 437 kts | 345° |
| 2026-05-07 01:54 | 38.06132 | -120.20380 | 34094 ft | 438 kts | 345° |
| 2026-05-07 01:55 | 38.11966 | -120.22425 | 34106 ft | 438 kts | 344° |
| 2026-05-07 01:55 | 38.17843 | -120.24488 | 34114 ft | 437 kts | 344° |
| 2026-05-07 01:56 | 38.23706 | -120.26550 | 34125 ft | 437 kts | 344° |
| 2026-05-07 01:56 | 38.29562 | -120.28613 | 34127 ft | 436 kts | 344° |
| 2026-05-07 01:57 | 38.35413 | -120.30677 | 34140 ft | 436 kts | 344° |
| 2026-05-07 01:57 | 38.41267 | -120.32746 | 34149 ft | 436 kts | 344° |
| 2026-05-07 01:58 | 38.47117 | -120.34817 | 34161 ft | 436 kts | 344° |
| 2026-05-07 01:58 | 38.52961 | -120.36890 | 34163 ft | 436 kts | 344° |
| 2026-05-07 01:59 | 38.58804 | -120.38965 | 34152 ft | 436 kts | 344° |
| 2026-05-07 01:59 | 38.64648 | -120.41045 | 34140 ft | 436 kts | 344° |
| 2026-05-07 02:00 | 38.70452 | -120.43114 | 34153 ft | 436 kts | 344° |
| 2026-05-07 02:00 | 38.76297 | -120.45200 | 34157 ft | 436 kts | 344° |
| 2026-05-07 02:01 | 38.82146 | -120.47292 | 34156 ft | 436 kts | 343° |
| 2026-05-07 02:01 | 38.87999 | -120.49389 | 34149 ft | 437 kts | 343° |
| 2026-05-07 02:02 | 38.93857 | -120.51492 | 34144 ft | 437 kts | 343° |
| 2026-05-07 02:02 | 38.99713 | -120.53597 | 34153 ft | 437 kts | 343° |
| 2026-05-07 02:03 | 39.05567 | -120.55705 | 34175 ft | 436 kts | 343° |
| 2026-05-07 02:03 | 39.11369 | -120.57798 | 34218 ft | 436 kts | 343° |
| 2026-05-07 02:04 | 39.17217 | -120.59911 | 34225 ft | 436 kts | 343° |
| 2026-05-07 02:04 | 39.23059 | -120.62025 | 34250 ft | 435 kts | 343° |
| 2026-05-07 02:05 | 39.28879 | -120.64135 | 34266 ft | 434 kts | 343° |
| 2026-05-07 02:05 | 39.34705 | -120.66252 | 34255 ft | 435 kts | 343° |
| 2026-05-07 02:05 | 39.37614 | -120.67310 | 34122 ft | 435 kts | 343° |
| 2026-05-07 02:06 | 39.40525 | -120.68369 | 34118 ft | 435 kts | 343° |
| 2026-05-07 02:06 | 39.46346 | -120.70491 | 34111 ft | 435 kts | 343° |
| 2026-05-07 02:07 | 39.52173 | -120.72619 | 34118 ft | 434 kts | 343° |
| 2026-05-07 02:07 | 39.60870 | -120.75801 | 34128 ft | 433 kts | 342° |
| 2026-05-07 02:08 | 39.66678 | -120.77931 | 34112 ft | 433 kts | 342° |
| 2026-05-07 02:08 | 39.72478 | -120.80061 | 34125 ft | 432 kts | 342° |
| 2026-05-07 02:09 | 39.78269 | -120.82192 | 34117 ft | 432 kts | 342° |
| 2026-05-07 02:09 | 39.84068 | -120.84330 | 34105 ft | 433 kts | 342° |
| 2026-05-07 02:10 | 39.89822 | -120.86455 | 34097 ft | 433 kts | 342° |
| 2026-05-07 02:10 | 39.95623 | -120.88601 | 34090 ft | 433 kts | 342° |
| 2026-05-07 02:11 | 40.01421 | -120.90750 | 34096 ft | 433 kts | 342° |
| 2026-05-07 02:11 | 40.07221 | -120.92903 | 34093 ft | 433 kts | 342° |
| 2026-05-07 02:12 | 40.13025 | -120.95062 | 34084 ft | 434 kts | 342° |
| 2026-05-07 02:12 | 40.18835 | -120.97226 | 34082 ft | 434 kts | 342° |
| 2026-05-07 02:13 | 40.24604 | -120.99379 | 34098 ft | 433 kts | 342° |
| 2026-05-07 02:13 | 40.30409 | -121.01550 | 34095 ft | 434 kts | 342° |
| 2026-05-07 02:14 | 40.36215 | -121.03725 | 34099 ft | 433 kts | 342° |
| 2026-05-07 02:14 | 40.42011 | -121.05900 | 34097 ft | 433 kts | 342° |
| 2026-05-07 02:15 | 40.47808 | -121.08079 | 34114 ft | 433 kts | 342° |
| 2026-05-07 02:15 | 40.53600 | -121.10260 | 34109 ft | 433 kts | 342° |
| 2026-05-07 02:16 | 40.59393 | -121.12446 | 34112 ft | 433 kts | 343° |
| 2026-05-07 02:16 | 40.65146 | -121.14620 | 34107 ft | 433 kts | 343° |
| 2026-05-07 02:17 | 40.70938 | -121.16813 | 34114 ft | 433 kts | 343° |
| 2026-05-07 02:17 | 40.76738 | -121.19013 | 34103 ft | 433 kts | 343° |
| 2026-05-07 02:18 | 40.82533 | -121.21215 | 34124 ft | 434 kts | 343° |
| 2026-05-07 02:18 | 40.88341 | -121.23426 | 34104 ft | 434 kts | 343° |
| 2026-05-07 02:19 | 40.94149 | -121.25642 | 34084 ft | 435 kts | 344° |
| 2026-05-07 02:19 | 40.99961 | -121.27862 | 34075 ft | 434 kts | 344° |
| 2026-05-07 02:20 | 41.05767 | -121.30084 | 34076 ft | 434 kts | 343° |
| 2026-05-07 02:20 | 41.11572 | -121.32311 | 34073 ft | 434 kts | 344° |
| 2026-05-07 02:21 | 41.17375 | -121.34540 | 34077 ft | 434 kts | 344° |
| 2026-05-07 02:21 | 41.23171 | -121.36771 | 34077 ft | 434 kts | 344° |
| 2026-05-07 02:22 | 41.28936 | -121.38994 | 34083 ft | 434 kts | 344° |
| 2026-05-07 02:22 | 41.34738 | -121.41236 | 34092 ft | 434 kts | 344° |
| 2026-05-07 02:23 | 41.40536 | -121.43480 | 34093 ft | 434 kts | 344° |
| 2026-05-07 02:23 | 41.46330 | -121.45727 | 34094 ft | 434 kts | 344° |
| 2026-05-07 02:24 | 41.52128 | -121.47979 | 34098 ft | 434 kts | 344° |
| 2026-05-07 02:24 | 41.57921 | -121.50234 | 34088 ft | 434 kts | 344° |
| 2026-05-07 02:25 | 41.63728 | -121.52498 | 34093 ft | 434 kts | 344° |
| 2026-05-07 02:25 | 41.69528 | -121.54764 | 34098 ft | 434 kts | 344° |
| 2026-05-07 02:26 | 41.75332 | -121.57036 | 34107 ft | 434 kts | 344° |
| 2026-05-07 02:26 | 41.81101 | -121.59298 | 34091 ft | 434 kts | 343° |
| 2026-05-07 02:27 | 41.86896 | -121.61575 | 34114 ft | 433 kts | 343° |
| 2026-05-07 02:27 | 41.92679 | -121.63851 | 34122 ft | 432 kts | 343° |
| 2026-05-07 02:28 | 41.98442 | -121.66125 | 34131 ft | 431 kts | 343° |
| 2026-05-07 02:28 | 42.04192 | -121.68397 | 34154 ft | 430 kts | 343° |
| 2026-05-07 02:29 | 42.09939 | -121.70672 | 34157 ft | 430 kts | 343° |
| 2026-05-07 02:29 | 42.15686 | -121.72953 | 34155 ft | 429 kts | 342° |
| 2026-05-07 02:30 | 42.21378 | -121.75406 | 34104 ft | 429 kts | 341° |
| 2026-05-07 02:30 | 42.26085 | -121.77522 | 34107 ft | 429 kts | 341° |
| 2026-05-07 02:31 | 42.31756 | -121.80068 | 34106 ft | 429 kts | 341° |
| 2026-05-07 02:31 | 42.37432 | -121.82602 | 34100 ft | 429 kts | 341° |
| 2026-05-07 02:32 | 42.43066 | -121.85112 | 34106 ft | 429 kts | 341° |
| 2026-05-07 02:32 | 42.48745 | -121.87644 | 34111 ft | 429 kts | 341° |
| 2026-05-07 02:33 | 42.54428 | -121.90184 | 34096 ft | 430 kts | 341° |
| 2026-05-07 02:33 | 42.60105 | -121.92725 | 34106 ft | 430 kts | 341° |
| 2026-05-07 02:34 | 42.65791 | -121.95276 | 34099 ft | 431 kts | 341° |
| 2026-05-07 02:34 | 42.71493 | -121.97839 | 34108 ft | 431 kts | 341° |
| 2026-05-07 02:35 | 42.77152 | -122.00387 | 34113 ft | 431 kts | 341° |
| 2026-05-07 02:35 | 42.82852 | -122.02959 | 34110 ft | 431 kts | 341° |
| 2026-05-07 02:36 | 42.88548 | -122.05534 | 34109 ft | 431 kts | 341° |
| 2026-05-07 02:36 | 42.94237 | -122.08111 | 34114 ft | 430 kts | 341° |
| 2026-05-07 02:37 | 42.99921 | -122.10691 | 34115 ft | 430 kts | 341° |
| 2026-05-07 02:37 | 43.05597 | -122.13272 | 34111 ft | 430 kts | 341° |
| 2026-05-07 02:38 | 43.11272 | -122.15858 | 34118 ft | 429 kts | 340° |
| 2026-05-07 02:38 | 43.16941 | -122.18446 | 34118 ft | 429 kts | 340° |
| 2026-05-07 02:39 | 43.22605 | -122.21037 | 34126 ft | 429 kts | 340° |
| 2026-05-07 02:39 | 43.28235 | -122.23617 | 34140 ft | 429 kts | 340° |
| 2026-05-07 02:40 | 43.33898 | -122.26217 | 34131 ft | 429 kts | 340° |
| 2026-05-07 02:40 | 43.39554 | -122.28820 | 34135 ft | 428 kts | 340° |
| 2026-05-07 02:41 | 43.45202 | -122.31424 | 34136 ft | 428 kts | 340° |
| 2026-05-07 02:41 | 43.50854 | -122.34035 | 34145 ft | 428 kts | 340° |
| 2026-05-07 02:42 | 43.56498 | -122.36647 | 34139 ft | 427 kts | 340° |
| 2026-05-07 02:42 | 43.62134 | -122.39261 | 34148 ft | 427 kts | 340° |
| 2026-05-07 02:43 | 43.67772 | -122.41881 | 34157 ft | 428 kts | 340° |
| 2026-05-07 02:43 | 43.73390 | -122.44497 | 34152 ft | 428 kts | 340° |
| 2026-05-07 02:44 | 43.79032 | -122.47129 | 34163 ft | 428 kts | 340° |
| 2026-05-07 02:44 | 43.84687 | -122.49773 | 34170 ft | 428 kts | 340° |
| 2026-05-07 02:45 | 43.90333 | -122.52418 | 34164 ft | 428 kts | 340° |
| 2026-05-07 02:45 | 43.95985 | -122.55071 | 34170 ft | 428 kts | 340° |
| 2026-05-07 02:46 | 44.01594 | -122.57709 | 34169 ft | 428 kts | 340° |
| 2026-05-07 02:46 | 44.07231 | -122.60366 | 34164 ft | 427 kts | 340° |
| 2026-05-07 02:47 | 44.12861 | -122.63024 | 34169 ft | 427 kts | 340° |
| 2026-05-07 02:47 | 44.18489 | -122.65692 | 34183 ft | 426 kts | 340° |
| 2026-05-07 02:48 | 44.24096 | -122.68388 | 34180 ft | 426 kts | 339° |
| 2026-05-07 02:48 | 44.29696 | -122.71093 | 34183 ft | 426 kts | 339° |
| 2026-05-07 02:49 | 44.35304 | -122.73806 | 34198 ft | 426 kts | 339° |
| 2026-05-07 02:49 | 44.40875 | -122.76504 | 34180 ft | 426 kts | 339° |
| 2026-05-07 02:50 | 44.46468 | -122.79217 | 34181 ft | 425 kts | 339° |
| 2026-05-07 02:50 | 44.52062 | -122.81936 | 34186 ft | 425 kts | 339° |
| 2026-05-07 02:51 | 44.57652 | -122.84659 | 34182 ft | 425 kts | 339° |
| 2026-05-07 02:51 | 44.63237 | -122.87385 | 34182 ft | 425 kts | 339° |
| 2026-05-07 02:52 | 44.68830 | -122.90120 | 34181 ft | 425 kts | 339° |
| 2026-05-07 02:52 | 44.74422 | -122.92861 | 34175 ft | 425 kts | 339° |
| 2026-05-07 02:53 | 44.79981 | -122.95591 | 34176 ft | 425 kts | 339° |
| 2026-05-07 02:53 | 44.85571 | -122.98341 | 34174 ft | 426 kts | 339° |
| 2026-05-07 02:54 | 44.91169 | -123.01102 | 34190 ft | 426 kts | 339° |
| 2026-05-07 02:54 | 44.96770 | -123.03869 | 34175 ft | 426 kts | 339° |
| 2026-05-07 02:55 | 45.02378 | -123.06646 | 34176 ft | 426 kts | 339° |
| 2026-05-07 02:55 | 45.07945 | -123.09408 | 34175 ft | 426 kts | 339° |
| 2026-05-07 02:56 | 45.13544 | -123.12192 | 34176 ft | 426 kts | 339° |
| 2026-05-07 02:56 | 45.19130 | -123.14975 | 34177 ft | 426 kts | 338° |
| 2026-05-07 02:57 | 45.24715 | -123.17764 | 34175 ft | 425 kts | 338° |
| 2026-05-07 02:57 | 45.30295 | -123.20556 | 34174 ft | 425 kts | 338° |
| 2026-05-07 02:58 | 45.35871 | -123.23351 | 34178 ft | 425 kts | 338° |
| 2026-05-07 02:58 | 45.41448 | -123.26153 | 34177 ft | 425 kts | 338° |
| 2026-05-07 02:59 | 45.47014 | -123.28956 | 34202 ft | 424 kts | 338° |
| 2026-05-07 02:59 | 45.52584 | -123.31766 | 34205 ft | 424 kts | 338° |
| 2026-05-07 03:00 | 45.58150 | -123.34580 | 34199 ft | 424 kts | 338° |
| 2026-05-07 03:00 | 45.63675 | -123.37379 | 34207 ft | 424 kts | 338° |
| 2026-05-07 03:01 | 45.69230 | -123.40199 | 34211 ft | 423 kts | 338° |
| 2026-05-07 03:01 | 45.74777 | -123.43022 | 34226 ft | 423 kts | 338° |
| 2026-05-07 03:02 | 45.80328 | -123.45852 | 34230 ft | 423 kts | 338° |
| 2026-05-07 03:02 | 45.85878 | -123.48688 | 34227 ft | 423 kts | 338° |
| 2026-05-07 03:03 | 45.91423 | -123.51528 | 34231 ft | 423 kts | 338° |
| 2026-05-07 03:03 | 45.96977 | -123.54378 | 34228 ft | 423 kts | 338° |
| 2026-05-07 03:04 | 46.02487 | -123.57211 | 34246 ft | 423 kts | 338° |
| 2026-05-07 03:04 | 46.08040 | -123.60073 | 34253 ft | 424 kts | 338° |
| 2026-05-07 03:05 | 46.13596 | -123.62942 | 34251 ft | 424 kts | 338° |
| 2026-05-07 03:05 | 46.19156 | -123.65819 | 34242 ft | 424 kts | 337° |
| 2026-05-07 03:06 | 46.24704 | -123.68696 | 34242 ft | 423 kts | 337° |
| 2026-05-07 03:06 | 46.30247 | -123.71577 | 34242 ft | 422 kts | 337° |
| 2026-05-07 03:07 | 46.35770 | -123.74453 | 34243 ft | 421 kts | 337° |
| 2026-05-07 03:07 | 46.41287 | -123.77334 | 34239 ft | 421 kts | 337° |
| 2026-05-07 03:08 | 46.46759 | -123.80196 | 34246 ft | 420 kts | 337° |
| 2026-05-07 03:08 | 46.52265 | -123.83083 | 34245 ft | 420 kts | 337° |
| 2026-05-07 03:09 | 46.57768 | -123.85974 | 34252 ft | 420 kts | 336° |
| 2026-05-07 03:09 | 46.63273 | -123.88873 | 34239 ft | 421 kts | 336° |
| 2026-05-07 03:10 | 46.68786 | -123.91782 | 34239 ft | 421 kts | 336° |
| 2026-05-07 03:10 | 46.74292 | -123.94694 | 34234 ft | 421 kts | 336° |
| 2026-05-07 03:11 | 46.79797 | -123.97611 | 34229 ft | 421 kts | 336° |
| 2026-05-07 03:11 | 46.85281 | -124.00524 | 34231 ft | 421 kts | 336° |
| 2026-05-07 03:12 | 46.90796 | -124.03460 | 34230 ft | 422 kts | 336° |
| 2026-05-07 03:12 | 46.96308 | -124.06400 | 34233 ft | 422 kts | 336° |
| 2026-05-07 03:13 | 47.01826 | -124.09350 | 34231 ft | 422 kts | 336° |
| 2026-05-07 03:13 | 47.07344 | -124.12306 | 34232 ft | 422 kts | 336° |
| 2026-05-07 03:14 | 47.12866 | -124.15272 | 34236 ft | 422 kts | 336° |
| 2026-05-07 03:15 | 47.21144 | -124.19730 | 34240 ft | 423 kts | 336° |
| 2026-05-07 03:15 | 47.26665 | -124.22711 | 34240 ft | 423 kts | 336° |
| 2026-05-07 03:16 | 47.32196 | -124.25704 | 34233 ft | 423 kts | 336° |
| 2026-05-07 03:16 | 47.37722 | -124.28701 | 34232 ft | 422 kts | 336° |
| 2026-05-07 03:17 | 47.43205 | -124.31681 | 34231 ft | 422 kts | 335° |
| 2026-05-07 03:17 | 47.48714 | -124.34683 | 34228 ft | 422 kts | 335° |
| 2026-05-07 03:18 | 47.54220 | -124.37689 | 34226 ft | 421 kts | 335° |
| 2026-05-07 03:18 | 47.58791 | -124.40190 | 34229 ft | 421 kts | 335° |
| 2026-05-07 03:19 | 47.64282 | -124.43201 | 34231 ft | 421 kts | 335° |
| 2026-05-07 03:19 | 47.69772 | -124.46219 | 34226 ft | 421 kts | 335° |
| 2026-05-07 03:20 | 47.75257 | -124.49240 | 34222 ft | 421 kts | 335° |
| 2026-05-07 03:20 | 47.80745 | -124.52269 | 34223 ft | 421 kts | 335° |
| 2026-05-07 03:21 | 47.86237 | -124.55308 | 34246 ft | 421 kts | 335° |
| 2026-05-07 03:21 | 47.91736 | -124.58357 | 34233 ft | 422 kts | 335° |
| 2026-05-07 03:22 | 47.97206 | -124.61397 | 34227 ft | 422 kts | 335° |
| 2026-05-07 03:22 | 48.02707 | -124.64461 | 34232 ft | 422 kts | 335° |
| 2026-05-07 03:23 | 48.08209 | -124.67533 | 34219 ft | 422 kts | 335° |
| 2026-05-07 03:23 | 48.13711 | -124.70611 | 34204 ft | 422 kts | 335° |
| 2026-05-07 03:24 | 48.19210 | -124.73696 | 34208 ft | 421 kts | 335° |
| 2026-05-07 03:24 | 48.24703 | -124.76784 | 34219 ft | 421 kts | 335° |
| 2026-05-07 03:25 | 48.30185 | -124.79873 | 34214 ft | 421 kts | 334° |
| 2026-05-07 03:25 | 48.35669 | -124.82970 | 34197 ft | 421 kts | 334° |
| 2026-05-07 03:26 | 48.41147 | -124.86072 | 34197 ft | 421 kts | 334° |
| 2026-05-07 03:26 | 48.46593 | -124.89161 | 34206 ft | 420 kts | 334° |
| 2026-05-07 03:27 | 48.51834 | -124.92899 | 34203 ft | 413 kts | 322° |
| 2026-05-07 03:27 | 48.56517 | -124.97892 | 34199 ft | 412 kts | 321° |
| 2026-05-07 03:28 | 48.61180 | -125.02900 | 34200 ft | 411 kts | 321° |
| 2026-05-07 03:28 | 48.65847 | -125.07892 | 34208 ft | 411 kts | 321° |
| 2026-05-07 03:29 | 48.70516 | -125.12877 | 34202 ft | 411 kts | 321° |
| 2026-05-07 03:29 | 48.75181 | -125.17861 | 34198 ft | 410 kts | 321° |
| 2026-05-07 03:30 | 48.79845 | -125.22856 | 34202 ft | 410 kts | 321° |
| 2026-05-07 03:30 | 48.84505 | -125.27856 | 34199 ft | 410 kts | 321° |
| 2026-05-07 03:31 | 48.89157 | -125.32862 | 34201 ft | 410 kts | 321° |
| 2026-05-07 03:31 | 48.93786 | -125.37853 | 34196 ft | 410 kts | 321° |
| 2026-05-07 03:32 | 48.98441 | -125.42885 | 34196 ft | 410 kts | 321° |
| 2026-05-07 03:32 | 49.03095 | -125.47926 | 34194 ft | 410 kts | 320° |
| 2026-05-07 03:33 | 49.07752 | -125.52984 | 34190 ft | 411 kts | 320° |
| 2026-05-07 03:33 | 49.12399 | -125.58042 | 34190 ft | 411 kts | 320° |
| 2026-05-07 03:34 | 49.17054 | -125.63121 | 34186 ft | 411 kts | 320° |
| 2026-05-07 03:34 | 49.21703 | -125.68206 | 34187 ft | 410 kts | 320° |
| 2026-05-07 03:35 | 49.26341 | -125.73289 | 34195 ft | 411 kts | 320° |
| 2026-05-07 03:35 | 49.30943 | -125.78346 | 34185 ft | 409 kts | 320° |
| 2026-05-07 03:36 | 49.35567 | -125.83438 | 34174 ft | 410 kts | 320° |
| 2026-05-07 03:36 | 49.40201 | -125.88555 | 34176 ft | 410 kts | 320° |
| 2026-05-07 03:37 | 49.44833 | -125.93681 | 34176 ft | 411 kts | 319° |
| 2026-05-07 03:37 | 49.49473 | -125.98828 | 34185 ft | 411 kts | 319° |
| 2026-05-07 03:38 | 49.54108 | -126.03981 | 34179 ft | 410 kts | 319° |
| 2026-05-07 03:38 | 49.58729 | -126.09131 | 34176 ft | 410 kts | 319° |
| 2026-05-07 03:39 | 49.63353 | -126.14298 | 34197 ft | 411 kts | 319° |
| 2026-05-07 03:39 | 49.67992 | -126.19493 | 34175 ft | 412 kts | 319° |
| 2026-05-07 03:40 | 49.72604 | -126.24671 | 34176 ft | 412 kts | 319° |
| 2026-05-07 03:40 | 49.77242 | -126.29889 | 34176 ft | 412 kts | 319° |
| 2026-05-07 03:41 | 49.81892 | -126.35134 | 34189 ft | 413 kts | 319° |
| 2026-05-07 03:41 | 49.86523 | -126.40371 | 34191 ft | 412 kts | 319° |
| 2026-05-07 03:42 | 49.91150 | -126.45615 | 34194 ft | 412 kts | 319° |
| 2026-05-07 03:42 | 49.95772 | -126.50867 | 34226 ft | 412 kts | 318° |
| 2026-05-07 03:43 | 50.00369 | -126.56104 | 34213 ft | 412 kts | 318° |
| 2026-05-07 03:43 | 50.04981 | -126.61369 | 34215 ft | 411 kts | 319° |
| 2026-05-07 03:44 | 50.09576 | -126.66628 | 34243 ft | 408 kts | 318° |
| 2026-05-07 03:44 | 50.14144 | -126.71869 | 34236 ft | 407 kts | 318° |
| 2026-05-07 03:45 | 50.18705 | -126.77116 | 34234 ft | 407 kts | 318° |
| 2026-05-07 03:45 | 50.23274 | -126.82384 | 34240 ft | 408 kts | 318° |
| 2026-05-07 03:46 | 50.27826 | -126.87645 | 34249 ft | 406 kts | 318° |
| 2026-05-07 03:46 | 50.32366 | -126.92905 | 34250 ft | 406 kts | 318° |
| 2026-05-07 03:47 | 50.36894 | -126.98164 | 34241 ft | 405 kts | 318° |
| 2026-05-07 03:47 | 50.41393 | -127.03404 | 34259 ft | 405 kts | 318° |
| 2026-05-07 03:48 | 50.45920 | -127.08687 | 34262 ft | 406 kts | 317° |
| 2026-05-07 03:48 | 50.50451 | -127.13988 | 34276 ft | 406 kts | 317° |
| 2026-05-07 03:49 | 50.54997 | -127.19322 | 34273 ft | 408 kts | 317° |
| 2026-05-07 03:49 | 50.59552 | -127.24676 | 34272 ft | 409 kts | 317° |
| 2026-05-07 03:50 | 50.64122 | -127.30062 | 34281 ft | 410 kts | 317° |
| 2026-05-07 03:50 | 50.68662 | -127.35426 | 34273 ft | 410 kts | 317° |
| 2026-05-07 03:51 | 50.73229 | -127.40835 | 34273 ft | 410 kts | 317° |
| 2026-05-07 03:51 | 50.77790 | -127.46251 | 34276 ft | 410 kts | 317° |
| 2026-05-07 03:52 | 50.82349 | -127.51677 | 34289 ft | 410 kts | 317° |
| 2026-05-07 03:52 | 50.86908 | -127.57118 | 34276 ft | 410 kts | 317° |
| 2026-05-07 03:53 | 50.91459 | -127.62564 | 34269 ft | 410 kts | 317° |
| 2026-05-07 03:53 | 50.96004 | -127.68014 | 34275 ft | 409 kts | 317° |
| 2026-05-07 03:54 | 51.00545 | -127.73474 | 34269 ft | 409 kts | 316° |
| 2026-05-07 03:54 | 51.05050 | -127.78905 | 34280 ft | 409 kts | 316° |
| 2026-05-07 03:55 | 51.09584 | -127.84384 | 34274 ft | 409 kts | 316° |
| 2026-05-07 03:55 | 51.14109 | -127.89867 | 34274 ft | 408 kts | 316° |
| 2026-05-07 03:56 | 51.18627 | -127.95354 | 34278 ft | 408 kts | 316° |
| 2026-05-07 03:56 | 51.23144 | -128.00854 | 34291 ft | 408 kts | 316° |
| 2026-05-07 03:57 | 51.27655 | -128.06361 | 34282 ft | 408 kts | 316° |
| 2026-05-07 03:57 | 51.32167 | -128.11884 | 34280 ft | 408 kts | 316° |
| 2026-05-07 03:58 | 51.36674 | -128.17414 | 34280 ft | 408 kts | 316° |
| 2026-05-07 03:58 | 51.41183 | -128.22961 | 34280 ft | 408 kts | 316° |
| 2026-05-07 03:59 | 51.45688 | -128.28517 | 34294 ft | 409 kts | 315° |
| 2026-05-07 03:59 | 51.50170 | -128.34059 | 34282 ft | 409 kts | 315° |
| 2026-05-07 04:00 | 51.54679 | -128.39649 | 34285 ft | 409 kts | 315° |
| 2026-05-07 04:00 | 51.59182 | -128.45244 | 34284 ft | 409 kts | 315° |
| 2026-05-07 04:01 | 51.63676 | -128.50842 | 34296 ft | 409 kts | 315° |
| 2026-05-07 04:01 | 51.68168 | -128.56454 | 34284 ft | 409 kts | 315° |
| 2026-05-07 04:02 | 51.72656 | -128.62075 | 34283 ft | 408 kts | 315° |
| 2026-05-07 04:02 | 51.77138 | -128.67703 | 34286 ft | 408 kts | 315° |
| 2026-05-07 04:03 | 51.81619 | -128.73344 | 34282 ft | 408 kts | 315° |
| 2026-05-07 04:03 | 51.86101 | -128.79002 | 34289 ft | 408 kts | 315° |
| 2026-05-07 04:04 | 51.90548 | -128.84629 | 34284 ft | 408 kts | 314° |
| 2026-05-07 04:04 | 51.95026 | -128.90311 | 34285 ft | 408 kts | 314° |
| 2026-05-07 04:05 | 51.98740 | -128.95034 | 34290 ft | 408 kts | 314° |
| 2026-05-07 04:05 | 52.03208 | -129.00730 | 34287 ft | 408 kts | 314° |
| 2026-05-07 04:06 | 52.07671 | -129.06434 | 34293 ft | 408 kts | 314° |
| 2026-05-07 04:06 | 52.12128 | -129.12145 | 34292 ft | 408 kts | 314° |
| 2026-05-07 04:07 | 52.16582 | -129.17869 | 34286 ft | 408 kts | 314° |
| 2026-05-07 04:07 | 52.21034 | -129.23604 | 34282 ft | 408 kts | 314° |
| 2026-05-07 04:08 | 52.25490 | -129.29360 | 34290 ft | 408 kts | 314° |
| 2026-05-07 04:08 | 52.29916 | -129.35091 | 34284 ft | 408 kts | 314° |
| 2026-05-07 04:09 | 52.34356 | -129.40856 | 34288 ft | 407 kts | 314° |
| 2026-05-07 04:09 | 52.38787 | -129.46625 | 34288 ft | 407 kts | 314° |
| 2026-05-07 04:10 | 52.43222 | -129.52415 | 34318 ft | 407 kts | 314° |
| 2026-05-07 04:10 | 52.47641 | -129.58197 | 34300 ft | 406 kts | 313° |
| 2026-05-07 04:11 | 52.52023 | -129.63947 | 34287 ft | 405 kts | 313° |
| 2026-05-07 04:11 | 52.56416 | -129.69726 | 34290 ft | 404 kts | 313° |
| 2026-05-07 04:12 | 52.60788 | -129.75493 | 34289 ft | 402 kts | 313° |
| 2026-05-07 04:12 | 52.65145 | -129.81257 | 34311 ft | 402 kts | 313° |
| 2026-05-07 04:13 | 52.69498 | -129.87030 | 34297 ft | 401 kts | 313° |
| 2026-05-07 04:13 | 52.73847 | -129.92813 | 34292 ft | 400 kts | 313° |
| 2026-05-07 04:14 | 52.78180 | -129.98591 | 34294 ft | 400 kts | 313° |
| 2026-05-07 04:14 | 52.82506 | -130.04374 | 34291 ft | 400 kts | 313° |
| 2026-05-07 04:15 | 52.86805 | -130.10136 | 34288 ft | 400 kts | 313° |
| 2026-05-07 04:15 | 52.91135 | -130.15955 | 34289 ft | 400 kts | 312° |
| 2026-05-07 04:16 | 52.95461 | -130.21783 | 34287 ft | 401 kts | 312° |
| 2026-05-07 04:16 | 52.99785 | -130.27625 | 34297 ft | 401 kts | 312° |
| 2026-05-07 04:17 | 53.04113 | -130.33487 | 34290 ft | 401 kts | 312° |
| 2026-05-07 04:17 | 53.08446 | -130.39373 | 34291 ft | 402 kts | 313° |
| 2026-05-07 04:18 | 53.12779 | -130.45273 | 34307 ft | 402 kts | 313° |
| 2026-05-07 04:18 | 53.17111 | -130.51188 | 34287 ft | 402 kts | 313° |
| 2026-05-07 04:19 | 53.21438 | -130.57112 | 34275 ft | 402 kts | 313° |
| 2026-05-07 04:19 | 53.25732 | -130.63008 | 34303 ft | 402 kts | 313° |
| 2026-05-07 04:20 | 53.30052 | -130.68956 | 34282 ft | 402 kts | 313° |
| 2026-05-07 04:20 | 53.34368 | -130.74914 | 34276 ft | 402 kts | 313° |
| 2026-05-07 04:21 | 53.40844 | -130.83885 | 34292 ft | 402 kts | 313° |
| 2026-05-07 04:21 | 53.45157 | -130.89878 | 34268 ft | 402 kts | 313° |
| 2026-05-07 04:22 | 53.49476 | -130.95887 | 34297 ft | 404 kts | 313° |
| 2026-05-07 04:22 | 53.53812 | -131.01824 | 34293 ft | 405 kts | 313° |
| 2026-05-07 04:23 | 53.58185 | -131.07795 | 34308 ft | 405 kts | 313° |
| 2026-05-07 04:23 | 53.62562 | -131.13797 | 34308 ft | 406 kts | 313° |
| 2026-05-07 04:24 | 53.66936 | -131.19818 | 34323 ft | 406 kts | 313° |
| 2026-05-07 04:24 | 53.71332 | -131.25894 | 34327 ft | 408 kts | 313° |
| 2026-05-07 04:25 | 53.75728 | -131.31985 | 34316 ft | 409 kts | 313° |
| 2026-05-07 04:25 | 53.80136 | -131.38110 | 34321 ft | 410 kts | 313° |
| 2026-05-07 04:26 | 53.84518 | -131.44214 | 34321 ft | 411 kts | 313° |
| 2026-05-07 04:26 | 53.88935 | -131.50385 | 34349 ft | 412 kts | 313° |
| 2026-05-07 04:27 | 53.93354 | -131.56578 | 34336 ft | 412 kts | 313° |
| 2026-05-07 04:27 | 53.97779 | -131.62795 | 34336 ft | 413 kts | 313° |
| 2026-05-07 04:28 | 54.02202 | -131.69027 | 34337 ft | 413 kts | 313° |
| 2026-05-07 04:28 | 54.06616 | -131.75264 | 34338 ft | 412 kts | 313° |
| 2026-05-07 04:29 | 54.11028 | -131.81518 | 34332 ft | 412 kts | 313° |
| 2026-05-07 04:29 | 54.15437 | -131.87784 | 34337 ft | 412 kts | 313° |
| 2026-05-07 04:30 | 54.19807 | -131.94013 | 34336 ft | 411 kts | 313° |
| 2026-05-07 04:30 | 54.24199 | -132.00291 | 34337 ft | 411 kts | 312° |
| 2026-05-07 04:31 | 54.28581 | -132.06574 | 34334 ft | 410 kts | 312° |
| 2026-05-07 04:31 | 54.32957 | -132.12864 | 34341 ft | 410 kts | 312° |
| 2026-05-07 04:32 | 54.37319 | -132.19153 | 34334 ft | 409 kts | 312° |
| 2026-05-07 04:32 | 54.41665 | -132.25436 | 34331 ft | 407 kts | 312° |
| 2026-05-07 04:33 | 54.45986 | -132.31702 | 34332 ft | 406 kts | 311° |
| 2026-05-07 04:33 | 54.50273 | -132.37936 | 34334 ft | 405 kts | 311° |
| 2026-05-07 04:34 | 54.54571 | -132.44207 | 34337 ft | 405 kts | 311° |
| 2026-05-07 04:34 | 54.58864 | -132.50487 | 34329 ft | 404 kts | 311° |
| 2026-05-07 04:35 | 54.63149 | -132.56773 | 34333 ft | 404 kts | 311° |
| 2026-05-07 04:35 | 54.67432 | -132.63074 | 34335 ft | 404 kts | 311° |
| 2026-05-07 04:36 | 54.71693 | -132.69361 | 34329 ft | 406 kts | 311° |
| 2026-05-07 04:36 | 54.75997 | -132.75732 | 34340 ft | 408 kts | 311° |
| 2026-05-07 04:37 | 54.80327 | -132.82158 | 34331 ft | 410 kts | 311° |
| 2026-05-07 04:37 | 54.84680 | -132.88637 | 34330 ft | 413 kts | 311° |
| 2026-05-07 04:38 | 54.89041 | -132.95146 | 34334 ft | 414 kts | 311° |
| 2026-05-07 04:38 | 54.93414 | -133.01692 | 34366 ft | 415 kts | 311° |
| 2026-05-07 04:39 | 54.97797 | -133.08272 | 34339 ft | 416 kts | 311° |
| 2026-05-07 04:39 | 55.02154 | -133.14832 | 34334 ft | 417 kts | 311° |
| 2026-05-07 04:40 | 55.06536 | -133.21448 | 34331 ft | 416 kts | 311° |
| 2026-05-07 04:40 | 55.10903 | -133.28064 | 34332 ft | 415 kts | 311° |
| 2026-05-07 04:41 | 55.15263 | -133.34690 | 34355 ft | 415 kts | 311° |
| 2026-05-07 04:41 | 55.19618 | -133.41330 | 34340 ft | 415 kts | 311° |
| 2026-05-07 04:42 | 55.23977 | -133.47995 | 34330 ft | 417 kts | 311° |
| 2026-05-07 04:42 | 55.28340 | -133.54686 | 34333 ft | 417 kts | 311° |
| 2026-05-07 04:43 | 55.32702 | -133.61395 | 34335 ft | 417 kts | 311° |
| 2026-05-07 04:43 | 55.37044 | -133.68095 | 34329 ft | 419 kts | 311° |
| 2026-05-07 04:44 | 55.41424 | -133.74874 | 34327 ft | 419 kts | 311° |
| 2026-05-07 04:44 | 55.45803 | -133.81671 | 34325 ft | 420 kts | 311° |
| 2026-05-07 04:45 | 55.50181 | -133.88487 | 34328 ft | 420 kts | 311° |
| 2026-05-07 04:45 | 55.54552 | -133.95314 | 34326 ft | 420 kts | 311° |
| 2026-05-07 04:46 | 55.58924 | -134.02165 | 34331 ft | 421 kts | 311° |
| 2026-05-07 04:46 | 55.63302 | -134.09047 | 34332 ft | 421 kts | 311° |
| 2026-05-07 04:47 | 55.67653 | -134.15907 | 34326 ft | 422 kts | 311° |
| 2026-05-07 04:47 | 55.72033 | -134.22834 | 34327 ft | 422 kts | 311° |
| 2026-05-07 04:48 | 55.76418 | -134.29790 | 34325 ft | 423 kts | 311° |
| 2026-05-07 04:48 | 55.80802 | -134.36765 | 34329 ft | 424 kts | 311° |
| 2026-05-07 04:49 | 55.85066 | -134.43954 | 34323 ft | 421 kts | 308° |
| 2026-05-07 04:49 | 55.89147 | -134.51433 | 34326 ft | 421 kts | 307° |
| 2026-05-07 04:50 | 55.93182 | -134.58893 | 34320 ft | 421 kts | 307° |
| 2026-05-07 04:50 | 55.97256 | -134.66393 | 34317 ft | 421 kts | 307° |
| 2026-05-07 04:51 | 56.01347 | -134.73910 | 34332 ft | 422 kts | 307° |
| 2026-05-07 04:51 | 56.05433 | -134.81429 | 34326 ft | 421 kts | 307° |
| 2026-05-07 04:52 | 56.09513 | -134.88960 | 34325 ft | 421 kts | 307° |
| 2026-05-07 04:52 | 56.13584 | -134.96499 | 34327 ft | 420 kts | 307° |
| 2026-05-07 04:53 | 56.16965 | -135.02781 | 34328 ft | 420 kts | 307° |
| 2026-05-07 04:53 | 56.21019 | -135.10333 | 34327 ft | 420 kts | 307° |
| 2026-05-07 04:54 | 56.25074 | -135.17915 | 34321 ft | 419 kts | 307° |
| 2026-05-07 04:54 | 56.29085 | -135.25437 | 34324 ft | 419 kts | 307° |
| 2026-05-07 04:55 | 56.33122 | -135.33034 | 34325 ft | 419 kts | 307° |
| 2026-05-07 04:55 | 56.37157 | -135.40651 | 34324 ft | 419 kts | 307° |
| 2026-05-07 04:56 | 56.41185 | -135.48279 | 34331 ft | 420 kts | 307° |
| 2026-05-07 04:56 | 56.45207 | -135.55923 | 34324 ft | 420 kts | 307° |
| 2026-05-07 04:57 | 56.49223 | -135.63578 | 34340 ft | 419 kts | 307° |
| 2026-05-07 04:57 | 56.53235 | -135.71251 | 34325 ft | 419 kts | 307° |
| 2026-05-07 04:58 | 56.57202 | -135.78863 | 34317 ft | 417 kts | 306° |
| 2026-05-07 04:58 | 56.61179 | -135.86519 | 34325 ft | 416 kts | 306° |
| 2026-05-07 04:59 | 56.65143 | -135.94175 | 34314 ft | 415 kts | 306° |
| 2026-05-07 04:59 | 56.69092 | -136.01830 | 34319 ft | 414 kts | 306° |
| 2026-05-07 05:00 | 56.73005 | -136.09438 | 34316 ft | 413 kts | 306° |
| 2026-05-07 05:00 | 56.76935 | -136.17105 | 34309 ft | 413 kts | 306° |
| 2026-05-07 05:01 | 56.80857 | -136.24783 | 34308 ft | 414 kts | 306° |
| 2026-05-07 05:01 | 56.84783 | -136.32492 | 34310 ft | 414 kts | 306° |
| 2026-05-07 05:02 | 56.88702 | -136.40213 | 34304 ft | 414 kts | 306° |
| 2026-05-07 05:02 | 56.92621 | -136.47959 | 34304 ft | 414 kts | 306° |
| 2026-05-07 05:03 | 56.96505 | -136.55662 | 34304 ft | 414 kts | 306° |
| 2026-05-07 05:03 | 57.00413 | -136.63437 | 34310 ft | 415 kts | 306° |
| 2026-05-07 05:04 | 57.04319 | -136.71237 | 34299 ft | 415 kts | 306° |
| 2026-05-07 05:04 | 57.08220 | -136.79052 | 34295 ft | 414 kts | 305° |
| 2026-05-07 05:05 | 57.12116 | -136.86880 | 34294 ft | 414 kts | 305° |
| 2026-05-07 05:05 | 57.15976 | -136.94665 | 34293 ft | 414 kts | 305° |
| 2026-05-07 05:06 | 57.19859 | -137.02522 | 34300 ft | 414 kts | 305° |
| 2026-05-07 05:06 | 57.23733 | -137.10387 | 34298 ft | 414 kts | 305° |
| 2026-05-07 05:07 | 57.27608 | -137.18280 | 34290 ft | 414 kts | 305° |
| 2026-05-07 05:07 | 57.31467 | -137.26167 | 34291 ft | 413 kts | 305° |
| 2026-05-07 05:08 | 57.35317 | -137.34061 | 34285 ft | 412 kts | 305° |
| 2026-05-07 05:08 | 57.39133 | -137.41914 | 34310 ft | 413 kts | 304° |
| 2026-05-07 05:09 | 57.42991 | -137.49881 | 34287 ft | 412 kts | 304° |
| 2026-05-07 05:09 | 57.46798 | -137.57770 | 34283 ft | 412 kts | 304° |
| 2026-05-07 05:10 | 57.50615 | -137.65703 | 34280 ft | 412 kts | 304° |
| 2026-05-07 05:10 | 57.54425 | -137.73650 | 34284 ft | 411 kts | 304° |
| 2026-05-07 05:11 | 57.58229 | -137.81612 | 34308 ft | 411 kts | 304° |
| 2026-05-07 05:11 | 57.62033 | -137.89603 | 34285 ft | 412 kts | 304° |
| 2026-05-07 05:12 | 57.65834 | -137.97615 | 34279 ft | 412 kts | 304° |
| 2026-05-07 05:12 | 57.69615 | -138.05611 | 34275 ft | 413 kts | 304° |
| 2026-05-07 05:13 | 57.73416 | -138.13675 | 34271 ft | 413 kts | 304° |
| 2026-05-07 05:13 | 57.77217 | -138.21767 | 34276 ft | 414 kts | 304° |
| 2026-05-07 05:14 | 57.81018 | -138.29891 | 34279 ft | 415 kts | 304° |
| 2026-05-07 05:14 | 57.84827 | -138.38059 | 34270 ft | 416 kts | 304° |
| 2026-05-07 05:15 | 57.88640 | -138.46262 | 34265 ft | 417 kts | 304° |
| 2026-05-07 05:15 | 57.92434 | -138.54452 | 34265 ft | 417 kts | 304° |
| 2026-05-07 05:16 | 57.96243 | -138.62705 | 34268 ft | 418 kts | 303° |
| 2026-05-07 05:16 | 58.00058 | -138.71003 | 34271 ft | 419 kts | 304° |
| 2026-05-07 05:17 | 58.03882 | -138.79348 | 34261 ft | 421 kts | 304° |
| 2026-05-07 05:17 | 58.07708 | -138.87725 | 34253 ft | 421 kts | 304° |
| 2026-05-07 05:18 | 58.11539 | -138.96145 | 34256 ft | 422 kts | 304° |
| 2026-05-07 05:18 | 58.15363 | -139.04580 | 34252 ft | 422 kts | 304° |
| 2026-05-07 05:19 | 58.19164 | -139.12992 | 34252 ft | 423 kts | 304° |
| 2026-05-07 05:19 | 58.22981 | -139.21472 | 34251 ft | 422 kts | 304° |
| 2026-05-07 05:20 | 58.26788 | -139.29961 | 34249 ft | 422 kts | 303° |
| 2026-05-07 05:20 | 58.30590 | -139.38469 | 34254 ft | 422 kts | 303° |
| 2026-05-07 05:21 | 58.36247 | -139.51187 | 34274 ft | 421 kts | 303° |
| 2026-05-07 05:22 | 58.40027 | -139.59724 | 34257 ft | 421 kts | 303° |
| 2026-05-07 05:22 | 58.43805 | -139.68286 | 34247 ft | 422 kts | 303° |
| 2026-05-07 05:23 | 58.47583 | -139.76882 | 34242 ft | 422 kts | 303° |
| 2026-05-07 05:23 | 58.51352 | -139.85486 | 34243 ft | 422 kts | 303° |
| 2026-05-07 05:24 | 58.55117 | -139.94115 | 34238 ft | 422 kts | 303° |
| 2026-05-07 05:24 | 58.58880 | -140.02774 | 34244 ft | 424 kts | 303° |
| 2026-05-07 05:25 | 58.62633 | -140.11438 | 34241 ft | 424 kts | 303° |
| 2026-05-07 05:25 | 58.66405 | -140.20178 | 34237 ft | 425 kts | 303° |
| 2026-05-07 05:26 | 58.70174 | -140.28944 | 34231 ft | 426 kts | 303° |
| 2026-05-07 05:26 | 58.73945 | -140.37749 | 34231 ft | 426 kts | 303° |
| 2026-05-07 05:27 | 58.77714 | -140.46578 | 34231 ft | 427 kts | 303° |
| 2026-05-07 05:27 | 58.81357 | -140.55576 | 34226 ft | 422 kts | 297° |
| 2026-05-07 05:28 | 58.84403 | -140.65226 | 34224 ft | 421 kts | 295° |
| 2026-05-07 05:28 | 58.87369 | -140.74981 | 34223 ft | 421 kts | 295° |
| 2026-05-07 05:29 | 58.90335 | -140.84667 | 34220 ft | 421 kts | 295° |
| 2026-05-07 05:29 | 58.93335 | -140.94402 | 34240 ft | 421 kts | 295° |
| 2026-05-07 05:30 | 58.96340 | -141.04158 | 34223 ft | 421 kts | 295° |
| 2026-05-07 05:30 | 58.99317 | -141.13853 | 34217 ft | 421 kts | 295° |
| 2026-05-07 05:31 | 59.02302 | -141.23616 | 34215 ft | 420 kts | 295° |
| 2026-05-07 05:31 | 59.05276 | -141.33384 | 34210 ft | 420 kts | 295° |
| 2026-05-07 05:32 | 59.08244 | -141.43176 | 34208 ft | 420 kts | 295° |
| 2026-05-07 05:32 | 59.11202 | -141.52979 | 34215 ft | 420 kts | 295° |
| 2026-05-07 05:33 | 59.14155 | -141.62803 | 34206 ft | 420 kts | 295° |
| 2026-05-07 05:33 | 59.17084 | -141.72592 | 34201 ft | 419 kts | 295° |
| 2026-05-07 05:34 | 59.20017 | -141.82432 | 34207 ft | 419 kts | 295° |
| 2026-05-07 05:34 | 59.22940 | -141.92282 | 34198 ft | 419 kts | 295° |
| 2026-05-07 05:35 | 59.25858 | -142.02157 | 34201 ft | 420 kts | 295° |
| 2026-05-07 05:35 | 59.28768 | -142.12049 | 34199 ft | 419 kts | 295° |
| 2026-05-07 05:36 | 59.31668 | -142.21946 | 34189 ft | 419 kts | 295° |
| 2026-05-07 05:36 | 59.34564 | -142.31873 | 34193 ft | 419 kts | 294° |
| 2026-05-07 05:37 | 59.37430 | -142.41741 | 34187 ft | 419 kts | 294° |
| 2026-05-07 05:37 | 59.40308 | -142.51692 | 34209 ft | 419 kts | 294° |
| 2026-05-07 05:38 | 59.43182 | -142.61673 | 34192 ft | 420 kts | 294° |
| 2026-05-07 05:38 | 59.46052 | -142.71684 | 34181 ft | 420 kts | 294° |
| 2026-05-07 05:39 | 59.48915 | -142.81714 | 34182 ft | 420 kts | 294° |
| 2026-05-07 05:39 | 59.51752 | -142.91693 | 34183 ft | 420 kts | 294° |
| 2026-05-07 05:40 | 59.54600 | -143.01757 | 34179 ft | 420 kts | 294° |
| 2026-05-07 05:40 | 59.57440 | -143.11838 | 34187 ft | 421 kts | 294° |
| 2026-05-07 05:41 | 59.60281 | -143.21969 | 34184 ft | 421 kts | 294° |
| 2026-05-07 05:41 | 59.63113 | -143.32112 | 34179 ft | 422 kts | 294° |
| 2026-05-07 05:42 | 59.65922 | -143.42215 | 34174 ft | 422 kts | 294° |
| 2026-05-07 05:42 | 59.68741 | -143.52399 | 34174 ft | 422 kts | 294° |
| 2026-05-07 05:43 | 59.71554 | -143.62611 | 34203 ft | 422 kts | 294° |
| 2026-05-07 05:43 | 59.73891 | -143.71129 | 34191 ft | 423 kts | 294° |
| 2026-05-07 05:44 | 59.76696 | -143.81394 | 34174 ft | 423 kts | 294° |
| 2026-05-07 05:44 | 59.79496 | -143.91685 | 34173 ft | 424 kts | 294° |
| 2026-05-07 05:45 | 59.82738 | -144.03664 | 34169 ft | 424 kts | 294° |
| 2026-05-07 05:45 | 59.85071 | -144.12323 | 34167 ft | 424 kts | 293° |
| 2026-05-07 05:46 | 59.87852 | -144.22685 | 34167 ft | 424 kts | 293° |
| 2026-05-07 05:46 | 59.90602 | -144.32984 | 34169 ft | 424 kts | 293° |
| 2026-05-07 05:47 | 59.93366 | -144.43380 | 34172 ft | 424 kts | 293° |
| 2026-05-07 05:47 | 59.96125 | -144.53806 | 34161 ft | 424 kts | 293° |
| 2026-05-07 05:48 | 59.98871 | -144.64230 | 34166 ft | 424 kts | 293° |
| 2026-05-07 05:48 | 60.01611 | -144.74684 | 34179 ft | 424 kts | 293° |
| 2026-05-07 05:49 | 60.04343 | -144.85154 | 34172 ft | 424 kts | 293° |
| 2026-05-07 05:49 | 60.07066 | -144.95639 | 34163 ft | 425 kts | 293° |
| 2026-05-07 05:50 | 60.09763 | -145.06071 | 34163 ft | 425 kts | 293° |
| 2026-05-07 05:50 | 60.12475 | -145.16608 | 34164 ft | 425 kts | 293° |
| 2026-05-07 05:51 | 60.15175 | -145.27155 | 34163 ft | 425 kts | 292° |
| 2026-05-07 05:51 | 60.17867 | -145.37718 | 34170 ft | 425 kts | 292° |
| 2026-05-07 05:52 | 60.20555 | -145.48313 | 34166 ft | 425 kts | 292° |
| 2026-05-07 05:52 | 60.23217 | -145.58857 | 34162 ft | 425 kts | 292° |
| 2026-05-07 05:53 | 60.25883 | -145.69471 | 34160 ft | 425 kts | 292° |
| 2026-05-07 05:53 | 60.28541 | -145.80101 | 34160 ft | 425 kts | 292° |
| 2026-05-07 05:54 | 60.31188 | -145.90739 | 34170 ft | 425 kts | 292° |
| 2026-05-07 05:54 | 60.33833 | -146.01421 | 34161 ft | 425 kts | 292° |
| 2026-05-07 05:55 | 60.36476 | -146.12148 | 34153 ft | 426 kts | 292° |
| 2026-05-07 05:55 | 60.39089 | -146.22802 | 34147 ft | 426 kts | 292° |
| 2026-05-07 05:56 | 60.41716 | -146.33565 | 34150 ft | 426 kts | 292° |
| 2026-05-07 05:56 | 60.44334 | -146.44347 | 34148 ft | 426 kts | 292° |
| 2026-05-07 05:57 | 60.46945 | -146.55149 | 34157 ft | 427 kts | 292° |
| 2026-05-07 05:57 | 60.49957 | -146.65599 | 34160 ft | 433 kts | 302° |
| 2026-05-07 05:58 | 60.53658 | -146.75293 | 34148 ft | 435 kts | 303° |
| 2026-05-07 05:58 | 60.57339 | -146.85054 | 34142 ft | 435 kts | 303° |
| 2026-05-07 05:59 | 60.60962 | -146.94946 | 34142 ft | 435 kts | 302° |
| 2026-05-07 05:59 | 60.64549 | -147.04819 | 34162 ft | 436 kts | 302° |
| 2026-05-07 06:00 | 60.68109 | -147.14847 | 34151 ft | 436 kts | 302° |
| 2026-05-07 06:00 | 60.71641 | -147.24934 | 34162 ft | 437 kts | 302° |
| 2026-05-07 06:01 | 60.75177 | -147.35064 | 33759 ft | 441 kts | 302° |
| 2026-05-07 06:01 | 60.76952 | -147.40156 | 33152 ft | 438 kts | 301° |
| 2026-05-07 06:01 | 60.78716 | -147.45222 | 32498 ft | 435 kts | 301° |
| 2026-05-07 06:01 | 60.80463 | -147.50249 | 31799 ft | 433 kts | 301° |
| 2026-05-07 06:02 | 60.82205 | -147.55271 | 31089 ft | 431 kts | 301° |
| 2026-05-07 06:02 | 60.83937 | -147.60281 | 30404 ft | 430 kts | 301° |
| 2026-05-07 06:02 | 60.85653 | -147.65248 | 29833 ft | 423 kts | 301° |
| 2026-05-07 06:02 | 60.87336 | -147.70132 | 29280 ft | 415 kts | 301° |
| 2026-05-07 06:03 | 60.88966 | -147.74870 | 28749 ft | 408 kts | 301° |
| 2026-05-07 06:03 | 60.90589 | -147.79598 | 28233 ft | 401 kts | 301° |
| 2026-05-07 06:03 | 60.92184 | -147.84258 | 27712 ft | 395 kts | 301° |
| 2026-05-07 06:03 | 60.93752 | -147.88851 | 27208 ft | 389 kts | 301° |
| 2026-05-07 06:04 | 60.95300 | -147.93392 | 26724 ft | 384 kts | 301° |
| 2026-05-07 06:04 | 60.96824 | -147.97874 | 26202 ft | 381 kts | 301° |
| 2026-05-07 06:04 | 60.98333 | -148.02320 | 25713 ft | 377 kts | 301° |
| 2026-05-07 06:04 | 60.99828 | -148.06731 | 25220 ft | 373 kts | 301° |
| 2026-05-07 06:05 | 61.01305 | -148.11100 | 24733 ft | 370 kts | 301° |
| 2026-05-07 06:05 | 61.02772 | -148.15445 | 24256 ft | 367 kts | 301° |
| 2026-05-07 06:05 | 61.04223 | -148.19754 | 23778 ft | 365 kts | 301° |
| 2026-05-07 06:05 | 61.05685 | -148.24104 | 23241 ft | 373 kts | 301° |
| 2026-05-07 06:06 | 61.07175 | -148.28550 | 22699 ft | 378 kts | 301° |
| 2026-05-07 06:06 | 61.08663 | -148.32987 | 22188 ft | 373 kts | 301° |
| 2026-05-07 06:06 | 61.10129 | -148.37362 | 21705 ft | 366 kts | 301° |
| 2026-05-07 06:06 | 61.11549 | -148.41606 | 21233 ft | 361 kts | 301° |
| 2026-05-07 06:07 | 61.12967 | -148.45861 | 20753 ft | 357 kts | 301° |
| 2026-05-07 06:07 | 61.14293 | -148.50162 | 20223 ft | 352 kts | 293° |
| 2026-05-07 06:07 | 61.15197 | -148.54830 | 19749 ft | 347 kts | 287° |
| 2026-05-07 06:07 | 61.15988 | -148.59517 | 19298 ft | 343 kts | 287° |
| 2026-05-07 06:08 | 61.16767 | -148.64192 | 18849 ft | 344 kts | 287° |
| 2026-05-07 06:08 | 61.17557 | -148.68882 | 18378 ft | 344 kts | 287° |
| 2026-05-07 06:08 | 61.18362 | -148.73586 | 17829 ft | 350 kts | 287° |
| 2026-05-07 06:08 | 61.19191 | -148.78390 | 17323 ft | 356 kts | 288° |
| 2026-05-07 06:09 | 61.20030 | -148.83224 | 16819 ft | 356 kts | 288° |
| 2026-05-07 06:09 | 61.20865 | -148.88022 | 16311 ft | 352 kts | 288° |
| 2026-05-07 06:09 | 61.21691 | -148.92776 | 15813 ft | 348 kts | 288° |
| 2026-05-07 06:09 | 61.22506 | -148.97474 | 15345 ft | 344 kts | 288° |
| 2026-05-07 06:10 | 61.23309 | -149.02127 | 14864 ft | 341 kts | 287° |
| 2026-05-07 06:10 | 61.24104 | -149.06746 | 14414 ft | 339 kts | 287° |
| 2026-05-07 06:10 | 61.24714 | -149.11445 | 13878 ft | 337 kts | 277° |
| 2026-05-07 06:10 | 61.25011 | -149.16268 | 13319 ft | 336 kts | 274° |
| 2026-05-07 06:11 | 61.25238 | -149.21072 | 12844 ft | 333 kts | 274° |
| 2026-05-07 06:11 | 61.25470 | -149.25845 | 12388 ft | 331 kts | 274° |
| 2026-05-07 06:11 | 61.25726 | -149.30560 | 11975 ft | 327 kts | 275° |
| 2026-05-07 06:11 | 61.25996 | -149.35241 | 11518 ft | 325 kts | 275° |
| 2026-05-07 06:12 | 61.26269 | -149.39871 | 11065 ft | 322 kts | 275° |
| 2026-05-07 06:12 | 61.26538 | -149.44437 | 10825 ft | 313 kts | 275° |
| 2026-05-07 06:12 | 61.26798 | -149.48905 | 10648 ft | 308 kts | 274° |
| 2026-05-07 06:12 | 61.27049 | -149.53279 | 10520 ft | 303 kts | 274° |
| 2026-05-07 06:13 | 61.27297 | -149.57618 | 10379 ft | 300 kts | 274° |
| 2026-05-07 06:13 | 61.27536 | -149.61808 | 10256 ft | 291 kts | 274° |
| 2026-05-07 06:13 | 61.27769 | -149.65918 | 10120 ft | 281 kts | 274° |
| 2026-05-07 06:13 | 61.27999 | -149.69887 | 10009 ft | 272 kts | 276° |
| 2026-05-07 06:14 | 61.28636 | -149.73567 | 9759 ft | 272 kts | 298° |
| 2026-05-07 06:14 | 61.29639 | -149.76874 | 9489 ft | 270 kts | 299° |
| 2026-05-07 06:14 | 61.30633 | -149.80176 | 9203 ft | 269 kts | 299° |
| 2026-05-07 06:14 | 61.31612 | -149.83473 | 8927 ft | 268 kts | 298° |
| 2026-05-07 06:15 | 61.32581 | -149.86773 | 8666 ft | 266 kts | 298° |
| 2026-05-07 06:15 | 61.33517 | -149.89969 | 8603 ft | 251 kts | 298° |
| 2026-05-07 06:15 | 61.34402 | -149.92998 | 8490 ft | 238 kts | 298° |
| 2026-05-07 06:15 | 61.35444 | -149.95553 | 8368 ft | 230 kts | 326° |
| 2026-05-07 06:16 | 61.36885 | -149.96766 | 8290 ft | 218 kts | 341° |
| 2026-05-07 06:16 | 61.38314 | -149.97580 | 8009 ft | 211 kts | 343° |
| 2026-05-07 06:16 | 61.39715 | -149.98468 | 7621 ft | 210 kts | 339° |
| 2026-05-07 06:16 | 61.41093 | -149.99429 | 7334 ft | 204 kts | 339° |
| 2026-05-07 06:17 | 61.42395 | -150.00341 | 7145 ft | 193 kts | 339° |
| 2026-05-07 06:17 | 61.43647 | -150.01337 | 6772 ft | 191 kts | 324° |
| 2026-05-07 06:17 | 61.44370 | -150.03489 | 6353 ft | 180 kts | 272° |
| 2026-05-07 06:17 | 61.44162 | -150.05906 | 5987 ft | 169 kts | 239° |
| 2026-05-07 06:18 | 61.43439 | -150.07775 | 5590 ft | 165 kts | 213° |
| 2026-05-07 06:18 | 61.42395 | -150.08727 | 5244 ft | 162 kts | 196° |
| 2026-05-07 06:18 | 61.41314 | -150.09406 | 4892 ft | 163 kts | 194° |
| 2026-05-07 06:18 | 61.40230 | -150.10066 | 4619 ft | 161 kts | 194° |
| 2026-05-07 06:19 | 61.39156 | -150.10717 | 4362 ft | 161 kts | 194° |
| 2026-05-07 06:19 | 61.38075 | -150.11346 | 4113 ft | 161 kts | 189° |
| 2026-05-07 06:19 | 61.37015 | -150.11036 | 3885 ft | 152 kts | 164° |
| 2026-05-07 06:19 | 61.36004 | -150.10450 | 3663 ft | 148 kts | 167° |
| 2026-05-07 06:20 | 61.35020 | -150.09901 | 3427 ft | 145 kts | 167° |
| 2026-05-07 06:20 | 61.34043 | -150.09348 | 3188 ft | 145 kts | 167° |
| 2026-05-07 06:20 | 61.33067 | -150.08797 | 2970 ft | 145 kts | 167° |
| 2026-05-07 06:20 | 61.32108 | -150.08257 | 2776 ft | 145 kts | 167° |
| 2026-05-07 06:21 | 61.31143 | -150.07714 | 2595 ft | 142 kts | 167° |
| 2026-05-07 06:21 | 61.30180 | -150.07174 | 2368 ft | 143 kts | 167° |
| 2026-05-07 06:21 | 61.29215 | -150.06632 | 2159 ft | 143 kts | 167° |
| 2026-05-07 06:21 | 61.28250 | -150.06091 | 1967 ft | 143 kts | 166° |
| 2026-05-07 06:22 | 61.27309 | -150.05562 | 1761 ft | 138 kts | 166° |
| 2026-05-07 06:22 | 61.25488 | -150.04540 | 1392 ft | 137 kts | 166° |
| 2026-05-07 06:22 | 61.24563 | -150.04021 | 1188 ft | 138 kts | 166° |
| 2026-05-07 06:23 | 61.23636 | -150.03500 | 987 ft | 138 kts | 166° |
| 2026-05-07 06:23 | 61.22712 | -150.02983 | 807 ft | 138 kts | 165° |
| 2026-05-07 06:23 | 61.21781 | -150.02468 | 657 ft | 136 kts | 165° |
| 2026-05-07 06:23 | 61.20860 | -150.01948 | 421 ft | 137 kts | 163° |
| 2026-05-07 06:24 | 61.19964 | -150.01435 | 208 ft | 129 kts | 164° |
| 2026-05-07 06:24 | 61.19153 | -150.00984 | 144 ft | 108 kts | 166° |
| 2026-05-07 06:24 | 61.18575 | -150.00667 | 127 ft | 66 kts | 165° |
| 2026-05-07 06:24 | 61.18173 | -150.00441 | 123 ft | 52 kts | 165° |
| 2026-05-07 06:25 | 61.17897 | -150.00215 | 118 ft | 40 kts | 145° |
| 2026-05-07 06:25 | 61.17719 | -149.99871 | 115 ft | 15 kts | 139° |
| 2026-05-07 06:25 | 61.17667 | -149.99685 | 113 ft | 17 kts | 82° |
| 2026-05-07 06:25 | 61.17701 | -149.99444 | 109 ft | 17 kts | 71° |
| 2026-05-07 06:26 | 61.17736 | -149.99213 | 104 ft | 17 kts | 92° |
| 2026-05-07 06:26 | 61.17663 | -149.99048 | 101 ft | 16 kts | 105° |
| 2026-05-07 06:26 | 61.17690 | -149.98832 | 103 ft | 15 kts | 84° |
| 2026-05-07 06:26 | 61.17632 | -149.98711 | 103 ft | 13 kts | 158° |
| 2026-05-07 06:27 | 61.17554 | -149.98635 | 105 ft | 12 kts | 134° |
| 2026-05-07 06:27 | 61.17540 | -149.98509 | 108 ft | 7 kts | 96° |
| 2026-05-07 06:27 | 61.17538 | -149.98471 | 107 ft | 0 kts | 96° |
| 2026-05-07 06:38 | 61.17539 | -149.98488 | 108 ft | 4 kts | 96° |
| 2026-05-07 06:39 | 61.17542 | -149.98543 | 106 ft | 4 kts | 96° |
| 2026-05-07 06:39 | 61.17545 | -149.98599 | 104 ft | 4 kts | 96° |
| 2026-05-07 06:39 | 61.17546 | -149.98636 | 105 ft | 6 kts | 82° |
| 2026-05-07 06:39 | 61.17546 | -149.98641 | 105 ft | 15 kts | 7° |
| 2026-05-07 06:40 | 61.17619 | -149.98701 | 103 ft | 15 kts | 341° |
| 2026-05-07 06:40 | 61.17652 | -149.98723 | 104 ft | 15 kts | 341° |
| 2026-05-07 06:40 | 61.17617 | -149.99061 | 102 ft | 7 kts | 175° |
| 2026-05-07 06:41 | 61.17555 | -149.99019 | 103 ft | 15 kts | 160° |
| 2026-05-07 06:41 | 61.17453 | -149.98942 | 105 ft | 15 kts | 160° |
| 2026-05-07 06:41 | 61.17352 | -149.98866 | 105 ft | 15 kts | 160° |
| 2026-05-07 06:41 | 61.17276 | -149.98809 | 110 ft | 15 kts | 160° |
| 2026-05-07 06:42 | 61.17176 | -149.98734 | 112 ft | 12 kts | 154° |
| 2026-05-07 06:42 | 61.17160 | -149.98717 | 116 ft | 10 kts | 150° |
| 2026-05-07 06:42 | 61.17117 | -149.98474 | 114 ft | 15 kts | 89° |
| 2026-05-07 06:42 | 61.17118 | -149.98251 | 114 ft | 15 kts | 90° |
| 2026-05-07 06:43 | 61.17117 | -149.98027 | 114 ft | 15 kts | 90° |
| 2026-05-07 06:43 | 61.17116 | -149.97803 | 110 ft | 15 kts | 90° |
| 2026-05-07 06:43 | 61.17117 | -149.97580 | 107 ft | 15 kts | 88° |
| 2026-05-07 06:43 | 61.17120 | -149.97414 | 104 ft | 15 kts | 88° |
| 2026-05-07 06:44 | 61.17124 | -149.97190 | 100 ft | 15 kts | 87° |
| 2026-05-07 06:44 | 61.17127 | -149.96995 | 97 ft | 2 kts | 89° |
| 2026-05-07 06:44 | 61.17128 | -149.96801 | 96 ft | 15 kts | 90° |
| 2026-05-07 06:44 | 61.17128 | -149.96652 | 96 ft | 15 kts | 90° |
| 2026-05-07 06:45 | 61.17128 | -149.96353 | 96 ft | 15 kts | 90° |
| 2026-05-07 06:45 | 61.17129 | -149.96133 | 96 ft | 15 kts | 90° |
| 2026-05-07 06:45 | 61.17129 | -149.95919 | 96 ft | 7 kts | 90° |
| 2026-05-07 06:45 | 61.17128 | -149.95743 | 96 ft | 15 kts | 92° |
| 2026-05-07 06:46 | 61.17122 | -149.95520 | 98 ft | 15 kts | 91° |
| 2026-05-07 06:46 | 61.17132 | -149.95353 | 96 ft | 9 kts | 63° |
| 2026-05-07 06:46 | 61.17193 | -149.95320 | 94 ft | 8 kts | 356° |
| 2026-05-07 06:46 | 61.17250 | -149.95321 | 96 ft | 6 kts | 1° |
| 2026-05-07 06:47 | 61.17269 | -149.95270 | 97 ft | 7 kts | 109° |
| 2026-05-07 06:47 | 61.17250 | -149.95205 | 95 ft | 0 kts | 125° |